createdAt,value
2018-04-06T00:02:01.475Z,75.52
2018-04-06T00:04:29.849Z,75.84
2018-04-06T00:06:59.993Z,75.61
2018-04-06T00:09:28.171Z,75.41
2018-04-06T00:11:56.350Z,75.94
2018-04-06T00:14:24.547Z,75.77
2018-04-06T00:16:52.724Z,75.23
2018-04-06T00:19:22.535Z,75.06
2018-04-06T00:21:50.695Z,75.39
2018-04-06T00:24:18.863Z,75.76
2018-04-06T00:26:47.069Z,75.88
2018-04-06T00:29:15.249Z,76.46
2018-04-06T00:31:43.465Z,76.41
2018-04-06T00:34:11.664Z,76.75
2018-04-06T00:36:41.724Z,76.39
2018-04-06T00:39:09.929Z,75.61
2018-04-06T00:41:38.166Z,75.41
2018-04-06T00:44:09.097Z,76.08
2018-04-06T00:46:37.267Z,75.94
2018-04-06T00:49:05.477Z,75.48
2018-04-06T00:51:35.211Z,75.24
2018-04-06T00:54:04.477Z,76.08
2018-04-06T00:56:32.671Z,76.13
2018-04-06T00:59:00.863Z,76.16
2018-04-06T01:01:29.052Z,76.57
2018-04-06T01:03:59.007Z,76.41
2018-04-06T01:06:27.187Z,76.34
2018-04-06T01:08:55.376Z,76.81
2018-04-06T01:11:23.588Z,77.19
2018-04-06T01:13:51.777Z,77.13
2018-04-06T01:16:19.941Z,77.17
2018-04-06T01:18:50.026Z,76.91
2018-04-06T01:21:18.235Z,76.64
2018-04-06T01:23:46.379Z,76.77
2018-04-06T01:26:14.660Z,76.67
2018-04-06T01:28:42.837Z,76.93
2018-04-06T01:31:12.774Z,76.99
2018-04-06T01:33:40.991Z,77.20
2018-04-06T01:36:09.209Z,77.03
2018-04-06T01:38:37.399Z,77.41
2018-04-06T01:41:05.603Z,77.65
2018-04-06T01:43:36.046Z,77.46
2018-04-06T01:46:04.240Z,77.01
2018-04-06T01:48:32.431Z,76.97
2018-04-06T01:51:01.336Z,77.42
2018-04-06T01:53:29.536Z,77.46
2018-04-06T01:55:57.720Z,77.18
2018-04-06T01:58:25.902Z,77.72
2018-04-06T02:00:56.842Z,77.78
2018-04-06T02:03:25.002Z,77.66
2018-04-06T02:05:53.215Z,77.81
2018-04-06T02:08:23.274Z,77.73
2018-04-06T02:10:51.468Z,78.11
2018-04-06T02:13:19.661Z,78.20
2018-04-06T02:15:49.674Z,78.50
2018-04-06T02:18:20.457Z,79.06
2018-04-06T02:20:48.650Z,79.21
2018-04-06T02:23:16.876Z,80.00
2018-04-06T02:25:45.076Z,79.57
2018-04-06T02:28:13.247Z,79.51
2018-04-06T02:30:44.111Z,79.22
2018-04-06T02:33:12.333Z,78.94
2018-04-06T02:35:42.268Z,78.99
2018-04-06T02:38:10.428Z,78.97
2018-04-06T02:40:38.602Z,79.71
2018-04-06T02:43:06.781Z,80.22
2018-04-06T02:45:34.974Z,80.41
2018-04-06T02:48:04.933Z,80.65
2018-04-06T02:50:34.791Z,81.16
2018-04-06T02:53:03.693Z,81.16
2018-04-06T02:55:31.872Z,81.33
2018-04-06T02:58:02.678Z,81.14
2018-04-06T03:00:30.898Z,81.44
2018-04-06T03:02:59.886Z,81.33
2018-04-06T03:05:28.054Z,81.51
2018-04-06T03:07:56.253Z,81.53
2018-04-06T03:10:24.438Z,81.84
2018-04-06T03:12:52.636Z,81.99
2018-04-06T03:15:20.837Z,81.77
2018-04-06T03:17:50.707Z,81.73
2018-04-06T03:20:18.888Z,82.22
2018-04-06T03:22:47.060Z,81.72
2018-04-06T03:25:15.238Z,81.55
2018-04-06T03:27:43.429Z,81.67
2018-04-06T03:30:14.251Z,81.92
2018-04-06T03:32:43.996Z,81.62
2018-04-06T03:37:43.098Z,81.33
2018-04-06T03:40:11.996Z,81.26
2018-04-06T03:42:40.212Z,81.96
2018-04-06T03:45:08.377Z,82.63
2018-04-06T03:47:36.586Z,82.42
2018-04-06T03:50:04.783Z,81.92
2018-04-06T03:52:34.691Z,81.83
2018-04-06T03:55:02.899Z,82.37
2018-04-06T03:57:31.061Z,82.44
2018-04-06T03:59:59.238Z,82.36
2018-04-06T04:02:27.444Z,82.66
2018-04-06T04:04:55.668Z,82.72
2018-04-06T04:07:23.847Z,82.49
2018-04-06T04:09:52.058Z,82.58
2018-04-06T04:12:20.235Z,83.16
2018-04-06T04:14:50.194Z,82.61
2018-04-06T04:17:18.385Z,82.84
2018-04-06T04:19:46.567Z,83.12
2018-04-06T04:22:14.740Z,82.71
2018-04-06T04:24:42.912Z,82.74
2018-04-06T04:27:11.102Z,83.26
2018-04-06T04:29:40.091Z,83.30
2018-04-06T04:32:08.301Z,82.94
2018-04-06T04:34:38.099Z,83.34
2018-04-06T04:37:08.919Z,83.24
2018-04-06T04:39:37.070Z,82.87
2018-04-06T04:42:05.281Z,83.19
2018-04-06T04:44:33.561Z,83.22
2018-04-06T04:47:01.777Z,82.98
2018-04-06T04:49:31.655Z,82.99
2018-04-06T04:51:59.846Z,82.56
2018-04-06T04:54:28.062Z,82.58
2018-04-06T04:56:56.255Z,83.10
2018-04-06T04:59:24.431Z,82.82
2018-04-06T05:01:56.454Z,83.01
2018-04-06T05:04:26.888Z,84.09
2018-04-06T05:06:55.501Z,83.66
2018-04-06T05:09:23.700Z,83.42
2018-04-06T05:11:51.899Z,83.76
2018-04-06T05:14:20.158Z,84.08
2018-04-06T05:16:50.113Z,84.11
2018-04-06T05:19:18.309Z,84.30
2018-04-06T05:21:49.765Z,84.42
2018-04-06T05:24:19.032Z,84.45
2018-04-06T05:26:47.310Z,84.76
2018-04-06T05:29:17.227Z,85.12
2018-04-06T05:31:45.442Z,85.03
2018-04-06T05:34:14.173Z,84.63
2018-04-06T05:36:42.451Z,84.58
2018-04-06T05:39:10.647Z,84.80
2018-04-06T05:41:38.827Z,84.41
2018-04-06T05:44:07.050Z,84.48
2018-04-06T05:46:35.281Z,84.44
2018-04-06T05:49:05.199Z,84.62
2018-04-06T05:51:35.958Z,84.56
2018-04-06T05:54:04.164Z,84.54
2018-04-06T05:56:34.166Z,84.61
2018-04-06T05:59:05.181Z,84.57
2018-04-06T06:01:35.991Z,84.46
2018-04-06T06:04:05.816Z,84.18
2018-04-06T06:06:36.154Z,84.06
2018-04-06T06:09:06.025Z,83.97
2018-04-06T06:11:34.253Z,83.83
2018-04-06T06:14:03.165Z,83.62
2018-04-06T06:16:32.183Z,83.42
2018-04-06T06:19:00.452Z,83.39
2018-04-06T06:21:28.650Z,83.03
2018-04-06T06:23:56.854Z,82.99
2018-04-06T06:26:26.797Z,82.63
2018-04-06T06:28:55.049Z,81.70
2018-04-06T06:31:23.249Z,81.73
2018-04-06T06:33:54.297Z,81.11
2018-04-06T06:36:22.521Z,80.93
2018-04-06T06:38:52.423Z,80.53
2018-04-06T06:41:20.678Z,80.59
2018-04-06T06:43:48.891Z,79.34
2018-04-06T06:46:17.108Z,79.61
2018-04-06T06:48:45.343Z,79.50
2018-04-06T06:51:15.286Z,79.17
2018-04-06T06:53:45.103Z,78.61
2018-04-06T06:56:15.948Z,77.81
2018-04-06T06:58:44.251Z,77.43
2018-04-06T07:01:12.491Z,77.71
2018-04-06T07:03:40.679Z,77.96
2018-04-06T07:06:08.861Z,77.76
2018-04-06T07:08:37.805Z,75.89
2018-04-06T07:11:07.701Z,76.15
2018-04-06T07:13:35.918Z,75.54
2018-04-06T07:16:04.122Z,74.86
2018-04-06T07:18:33.081Z,74.91
2018-04-06T07:21:03.743Z,74.93
2018-04-06T07:23:35.073Z,74.34
2018-04-06T07:26:04.101Z,74.15
2018-04-06T07:28:33.265Z,73.62
2018-04-06T07:31:01.592Z,73.38
2018-04-06T07:33:30.901Z,73.93
2018-04-06T07:35:59.170Z,73.71
2018-04-06T07:38:27.603Z,73.82
2018-04-06T07:40:55.884Z,73.77
2018-04-06T07:43:27.395Z,73.82
2018-04-06T07:45:55.573Z,73.41
2018-04-06T07:48:23.935Z,73.20
2018-04-06T07:50:54.246Z,72.99
2018-04-06T07:53:24.883Z,72.74
2018-04-06T07:55:53.065Z,72.66
2018-04-06T07:58:22.051Z,71.98
2018-04-06T08:00:51.047Z,71.78
2018-04-06T08:03:19.257Z,71.47
2018-04-06T08:05:48.244Z,70.80
2018-04-06T08:08:16.514Z,70.85
2018-04-06T08:10:44.744Z,70.26
2018-04-06T08:13:12.919Z,70.11
2018-04-06T08:15:41.103Z,69.33
2018-04-06T08:18:11.058Z,69.57
2018-04-06T08:20:41.150Z,69.31
2018-04-06T08:23:10.952Z,68.00
2018-04-06T08:25:39.173Z,68.52
2018-04-06T08:28:07.366Z,68.58
2018-04-06T08:30:35.567Z,68.15
2018-04-06T08:33:03.889Z,67.65
2018-04-06T08:45:18.890Z,64.37
2018-04-06T08:47:47.076Z,64.80
2018-04-06T08:50:15.451Z,64.11
2018-04-06T08:52:43.720Z,62.45
2018-04-06T08:55:12.640Z,61.88
2018-04-06T08:57:40.868Z,61.68
2018-04-06T09:00:10.783Z,59.63
2018-04-06T09:02:39.057Z,59.69
2018-04-06T09:05:07.967Z,58.95
2018-04-06T09:07:36.164Z,59.02
2018-04-06T09:10:04.336Z,59.85
2018-04-06T09:12:32.539Z,59.07
2018-04-06T09:15:00.745Z,58.90
2018-04-06T09:17:30.603Z,56.89
2018-04-06T09:20:00.637Z,57.30
2018-04-06T09:22:30.556Z,57.48
2018-04-06T09:25:00.747Z,56.08
2018-04-06T09:27:28.974Z,56.44
2018-04-06T09:29:57.172Z,56.58
2018-04-06T09:32:26.124Z,56.98
2018-04-06T09:34:54.458Z,56.50
2018-04-06T09:37:22.708Z,56.71
2018-04-06T09:39:51.010Z,56.05
2018-04-06T09:42:21.198Z,56.72
2018-04-06T09:44:49.394Z,55.89
2018-04-06T09:47:18.083Z,55.97
2018-04-06T09:49:48.038Z,55.12
2018-04-06T09:52:16.242Z,56.03
2018-04-06T09:54:44.394Z,55.88
2018-04-06T09:57:12.617Z,55.53
2018-04-06T09:59:41.538Z,56.71
2018-04-06T10:02:17.987Z,57.26
2018-04-06T10:04:47.926Z,55.19
2018-04-06T10:07:16.136Z,54.23
2018-04-06T10:09:45.992Z,54.50
2018-04-06T10:12:16.856Z,54.67
2018-04-06T10:14:46.840Z,54.94
2018-04-06T10:17:16.869Z,54.79
2018-04-06T10:19:45.073Z,56.52
2018-04-06T10:22:13.256Z,53.74
2018-04-06T10:24:45.152Z,54.30
2018-04-06T10:27:13.340Z,54.54
2018-04-06T10:29:41.635Z,54.58
2018-04-06T10:32:09.939Z,54.49
2018-04-06T10:34:38.216Z,54.26
2018-04-06T10:37:08.938Z,52.86
2018-04-06T10:39:37.136Z,52.89
2018-04-06T10:42:05.346Z,53.00
2018-04-06T10:44:34.440Z,51.97
2018-04-06T10:47:03.677Z,51.46
2018-04-06T10:49:31.854Z,50.48
2018-04-06T10:52:00.076Z,50.36
2018-04-06T10:54:29.974Z,51.70
2018-04-06T10:56:58.175Z,51.24
2018-04-06T10:59:26.397Z,51.45
2018-04-06T11:01:54.662Z,51.00
2018-04-06T11:04:22.963Z,50.99
2018-04-06T11:06:51.138Z,52.38
2018-04-06T11:09:22.028Z,53.10
2018-04-06T11:11:51.851Z,52.38
2018-04-06T11:14:21.740Z,51.54
2018-04-06T11:16:49.931Z,52.16
2018-04-06T11:19:18.167Z,52.34
2018-04-06T11:21:46.372Z,52.30
2018-04-06T11:24:14.564Z,51.30
2018-04-06T11:26:42.790Z,51.63
2018-04-06T11:29:12.665Z,52.23
2018-04-06T11:31:40.860Z,51.27
2018-04-06T11:34:09.070Z,51.45
2018-04-06T11:36:39.042Z,51.48
2018-04-06T11:39:07.220Z,51.18
2018-04-06T11:41:35.391Z,50.56
2018-04-06T11:44:04.395Z,50.63
2018-04-06T11:46:33.413Z,51.44
2018-04-06T11:49:01.691Z,49.53
2018-04-06T11:51:29.902Z,50.62
2018-04-06T11:53:58.100Z,51.04
2018-04-06T11:56:28.915Z,49.68
2018-04-06T11:58:57.100Z,49.31
2018-04-06T12:01:26.032Z,49.56
2018-04-06T12:03:54.213Z,47.93
2018-04-06T12:06:22.439Z,48.16
2018-04-06T12:08:50.642Z,47.98
2018-04-06T12:11:18.838Z,47.40
2018-04-06T12:13:47.832Z,47.50
2018-04-06T12:16:16.039Z,47.66
2018-04-06T12:18:44.278Z,48.36
2018-04-06T12:21:12.518Z,49.37
2018-04-06T12:23:41.480Z,50.30
2018-04-06T12:26:09.654Z,50.91
2018-04-06T12:28:37.835Z,51.25
2018-04-06T12:31:06.029Z,50.48
2018-04-06T12:33:34.271Z,50.25
2018-04-06T12:36:02.464Z,50.92
2018-04-06T12:38:34.583Z,48.97
2018-04-06T12:41:04.725Z,48.81
2018-04-06T12:43:32.946Z,49.16
2018-04-06T12:46:01.136Z,48.78
2018-04-06T12:48:29.355Z,50.23
2018-04-06T12:50:58.325Z,50.32
2018-04-06T12:53:29.138Z,51.61
2018-04-06T12:55:57.536Z,50.76
2018-04-06T12:58:26.715Z,50.41
2018-04-06T13:00:56.746Z,50.16
2018-04-06T13:03:25.000Z,50.78
2018-04-06T13:05:53.170Z,49.97
2018-04-06T13:08:21.378Z,51.43
2018-04-06T13:10:51.296Z,51.53
2018-04-06T13:13:19.544Z,50.79
2018-04-06T13:15:47.732Z,50.10
2018-04-06T13:18:17.544Z,50.47
2018-04-06T13:20:47.561Z,50.25
2018-04-06T13:23:15.771Z,50.75
2018-04-06T13:25:43.939Z,49.20
2018-04-06T13:28:12.924Z,49.18
2018-04-06T13:30:41.903Z,49.13
2018-04-06T13:33:10.150Z,48.89
2018-04-06T13:35:38.347Z,49.21
2018-04-06T13:38:08.347Z,49.03
2018-04-06T13:40:39.121Z,48.62
2018-04-06T13:43:07.414Z,46.63
2018-04-06T13:45:35.584Z,45.98
2018-04-06T13:48:03.800Z,45.36
2018-04-06T13:50:32.004Z,46.60
2018-04-06T13:53:00.221Z,44.05
2018-04-06T13:55:28.378Z,44.23
2018-04-06T13:57:56.551Z,43.86
2018-04-06T14:00:24.727Z,44.79
2018-04-06T14:02:52.913Z,45.62
2018-04-06T14:05:21.091Z,44.17
2018-04-06T14:07:49.311Z,44.09
2018-04-06T14:10:19.759Z,43.41
2018-04-06T14:12:47.957Z,43.47
2018-04-06T14:15:17.095Z,44.59
2018-04-06T14:17:45.463Z,42.14
2018-04-06T14:20:14.568Z,43.52
2018-04-06T14:22:42.762Z,43.75
2018-04-06T14:25:12.745Z,43.22
2018-04-06T14:27:40.975Z,43.26
2018-04-06T14:30:10.939Z,43.12
2018-04-06T14:32:41.026Z,42.50
2018-04-06T14:35:09.193Z,41.39
2018-04-06T14:37:37.487Z,42.83
2018-04-06T14:40:06.441Z,41.41
2018-04-06T14:42:34.661Z,40.58
2018-04-06T14:45:02.911Z,40.23
2018-04-06T14:47:31.123Z,39.38
2018-04-06T14:50:01.033Z,38.33
2018-04-06T14:52:30.855Z,38.83
2018-04-06T14:54:59.085Z,38.95
2018-04-06T14:57:27.316Z,38.52
2018-04-06T14:59:57.297Z,37.74
2018-04-06T15:02:26.282Z,37.33
2018-04-06T15:04:54.513Z,37.98
2018-04-06T15:07:23.451Z,37.59
2018-04-06T15:09:51.641Z,38.36
2018-04-06T15:12:19.897Z,38.81
2018-04-06T15:14:48.801Z,39.57
2018-04-06T15:17:17.098Z,38.36
2018-04-06T15:19:45.270Z,38.07
2018-04-06T15:22:13.490Z,37.96
2018-04-06T15:24:41.746Z,38.55
2018-04-06T15:27:09.916Z,38.92
2018-04-06T15:29:40.914Z,38.99
2018-04-06T15:32:09.091Z,38.76
2018-04-06T15:34:37.298Z,39.27
2018-04-06T15:37:05.502Z,39.68
2018-04-06T15:39:33.687Z,40.86
2018-04-06T15:42:01.883Z,42.34
2018-04-06T15:44:30.102Z,42.70
2018-04-06T15:46:58.320Z,42.98
2018-04-06T15:49:26.526Z,43.22
2018-04-06T15:51:54.759Z,43.40
2018-04-06T15:54:22.963Z,42.85
2018-04-06T15:56:53.641Z,43.70
2018-04-06T15:59:21.842Z,43.80
2018-04-06T16:01:50.060Z,44.41
2018-04-06T16:04:18.225Z,44.45
2018-04-06T16:06:47.205Z,44.94
2018-04-06T16:09:15.505Z,45.33
2018-04-06T16:11:43.741Z,45.13
2018-04-06T16:14:11.970Z,45.64
2018-04-06T16:16:40.225Z,46.20
2018-04-06T16:19:08.485Z,46.89
2018-04-06T16:21:36.675Z,46.77
2018-04-06T16:24:05.560Z,47.30
2018-04-06T16:26:33.796Z,47.30
2018-04-06T16:29:02.020Z,46.91
2018-04-06T16:31:31.961Z,46.39
2018-04-06T16:34:00.120Z,46.67
2018-04-06T16:36:28.314Z,46.71
2018-04-06T16:38:56.555Z,46.82
2018-04-06T16:41:24.799Z,47.59
2018-04-06T16:43:55.622Z,47.91
2018-04-06T16:46:30.711Z,48.08
2018-04-06T16:49:00.095Z,48.33
2018-04-06T16:51:28.331Z,48.60
2018-04-06T16:53:56.672Z,48.95
2018-04-06T16:56:26.593Z,49.07
2018-04-06T16:58:56.588Z,49.25
2018-04-06T17:01:24.778Z,49.70
2018-04-06T17:03:54.806Z,49.64
2018-04-06T17:06:22.995Z,49.91
2018-04-06T17:08:51.204Z,50.18
2018-04-06T17:11:19.443Z,50.37
2018-04-06T17:13:47.722Z,50.47
2018-04-06T17:16:15.996Z,50.72
2018-04-06T17:18:44.184Z,50.70
2018-04-06T17:21:12.383Z,50.92
2018-04-06T17:23:42.607Z,51.41
2018-04-06T17:26:13.467Z,51.42
2018-04-06T17:28:42.517Z,51.44
2018-04-06T17:31:14.602Z,51.51
2018-04-06T17:33:46.108Z,51.63
2018-04-06T17:36:15.856Z,51.65
2018-04-06T17:38:44.094Z,51.73
2018-04-06T17:41:12.316Z,51.55
2018-04-06T17:43:40.536Z,51.45
2018-04-06T17:46:10.518Z,51.86
2018-04-06T17:48:40.344Z,51.73
2018-04-06T17:51:11.260Z,52.10
2018-04-06T17:53:42.393Z,52.25
2018-04-06T17:56:13.612Z,52.35
2018-04-06T17:58:42.378Z,52.60
2018-04-06T18:01:11.073Z,52.69
2018-04-06T18:03:39.347Z,52.87
2018-04-06T18:06:07.628Z,53.13
2018-04-06T18:08:35.855Z,53.39
2018-04-06T18:11:04.110Z,54.01
2018-04-06T18:13:32.351Z,54.28
2018-04-06T18:16:00.696Z,54.66
2018-04-06T18:18:28.957Z,54.71
2018-04-06T18:20:57.231Z,54.92
2018-04-06T18:23:26.113Z,55.55
2018-04-06T18:25:54.560Z,55.76
2018-04-06T18:28:22.812Z,55.84
2018-04-06T18:30:52.801Z,56.08
2018-04-06T18:33:22.794Z,56.24
2018-04-06T18:35:52.635Z,56.24
2018-04-06T18:38:20.858Z,56.14
2018-04-06T18:40:49.859Z,56.30
2018-04-06T18:43:18.056Z,56.36
2018-04-06T18:45:48.544Z,56.48
2018-04-06T18:48:16.854Z,56.58
2018-04-06T18:50:45.091Z,56.94
2018-04-06T18:53:13.309Z,56.93
2018-04-06T18:55:41.518Z,57.30
2018-04-06T18:58:09.755Z,57.41
2018-04-06T19:00:38.008Z,57.54
2018-04-06T19:03:06.238Z,57.53
2018-04-06T19:05:34.488Z,57.59
2018-04-06T19:08:05.468Z,57.77
2018-04-06T19:10:35.427Z,57.94
2018-04-06T19:13:07.299Z,57.94
2018-04-06T19:15:35.497Z,58.32
2018-04-06T19:18:04.622Z,58.25
2018-04-06T19:20:32.849Z,58.42
2018-04-06T19:23:02.904Z,58.36
2018-04-06T19:25:31.173Z,58.79
2018-04-06T19:28:02.157Z,59.06
2018-04-06T19:30:30.391Z,59.01
2018-04-06T19:33:00.320Z,59.50
2018-04-06T19:35:28.534Z,59.35
2018-04-06T19:37:57.490Z,59.40
2018-04-06T19:40:25.713Z,59.61
2018-04-06T19:42:54.876Z,59.76
2018-04-06T19:45:23.876Z,59.81
2018-04-06T19:47:54.343Z,59.77
2018-04-06T19:50:22.631Z,59.83
2018-04-06T19:52:51.678Z,59.63
2018-04-06T19:55:20.032Z,59.93
2018-04-06T19:57:49.161Z,60.01
2018-04-06T20:00:17.355Z,60.21
2018-04-06T20:02:45.538Z,60.12
2018-04-06T20:05:13.888Z,60.17
2018-04-06T20:07:42.166Z,60.40
2018-04-06T20:10:10.393Z,60.40
2018-04-06T20:12:38.700Z,60.39
2018-04-06T20:15:06.941Z,60.43
2018-04-06T20:17:35.112Z,60.27
2018-04-06T20:20:04.076Z,60.40
2018-04-06T20:22:34.024Z,60.54
2018-04-06T20:25:02.245Z,60.73
2018-04-06T20:27:30.604Z,60.88
2018-04-06T20:29:58.822Z,60.86
2018-04-06T20:32:27.050Z,60.85
2018-04-06T20:34:55.311Z,60.92
2018-04-06T20:37:24.302Z,60.97
2018-04-06T20:39:52.667Z,61.19
2018-04-06T20:42:20.929Z,60.94
2018-04-06T20:44:49.128Z,61.37
2018-04-06T20:47:17.327Z,61.32
2018-04-06T20:49:46.295Z,61.36
2018-04-06T20:52:14.501Z,61.41
2018-04-06T20:54:42.766Z,61.73
2018-04-06T20:57:10.951Z,62.20
2018-04-06T20:59:39.174Z,62.53
2018-04-06T21:02:07.396Z,62.42
2018-04-06T21:07:16.705Z,63.19
2018-04-06T21:09:44.876Z,63.08
2018-04-06T21:12:15.699Z,63.35
2018-04-06T21:14:46.010Z,63.70
2018-04-06T21:17:16.545Z,63.63
2018-04-06T21:19:45.747Z,63.72
2018-04-06T21:22:14.010Z,64.14
2018-04-06T21:24:42.190Z,64.27
2018-04-06T21:27:10.375Z,64.43
2018-04-06T21:29:38.603Z,64.90
2018-04-06T21:32:06.803Z,64.97
2018-04-06T21:34:36.697Z,65.38
2018-04-06T21:37:04.944Z,65.58
2018-04-06T21:39:35.693Z,65.83
2018-04-06T21:42:03.884Z,65.84
2018-04-06T21:44:32.098Z,66.04
2018-04-06T21:47:00.326Z,66.51
2018-04-06T21:49:28.564Z,66.50
2018-04-06T21:51:56.761Z,66.60
2018-04-06T21:57:16.510Z,66.80
2018-04-06T21:59:44.718Z,67.08
2018-04-06T22:02:12.945Z,67.05
2018-04-06T22:04:42.868Z,67.08
2018-04-06T22:07:13.668Z,67.38
2018-04-06T22:09:42.008Z,67.59
2018-04-06T22:12:12.792Z,67.77
2018-04-06T22:14:43.633Z,67.98
2018-04-06T22:17:13.675Z,67.99
2018-04-06T22:19:41.864Z,67.95
2018-04-06T22:22:10.070Z,68.22
2018-04-06T22:24:38.257Z,68.15
2018-04-06T22:27:06.481Z,68.18
2018-04-06T22:29:34.799Z,67.99
2018-04-06T22:32:03.739Z,68.33
2018-04-06T22:34:31.939Z,68.14
2018-04-06T22:37:00.155Z,68.32
2018-04-06T22:39:28.364Z,68.53
2018-04-06T22:41:58.311Z,68.42
2018-04-06T22:44:26.519Z,68.43
2018-04-06T22:46:54.877Z,68.66
2018-04-06T22:49:23.073Z,68.87
2018-04-06T22:51:51.259Z,68.96
2018-04-06T22:54:20.260Z,68.80
2018-04-06T22:56:48.421Z,68.10
2018-04-06T22:59:16.617Z,68.15
2018-04-06T23:01:44.813Z,67.93
2018-04-06T23:04:12.997Z,67.83
2018-04-06T23:06:41.200Z,67.91
2018-04-06T23:09:09.411Z,68.06
2018-04-06T23:11:40.461Z,67.66
2018-04-06T23:14:08.670Z,67.84
2018-04-06T23:16:36.871Z,67.74
2018-04-06T23:19:05.809Z,67.90
2018-04-06T23:21:34.773Z,67.67
2018-04-06T23:24:02.934Z,68.00
2018-04-06T23:26:31.137Z,67.67
2018-04-06T23:28:59.341Z,67.83
2018-04-06T23:31:28.271Z,68.20
2018-04-06T23:33:59.125Z,67.79
2018-04-06T23:36:27.322Z,67.53
2018-04-06T23:38:58.313Z,67.42
2018-04-06T23:41:26.527Z,67.64
2018-04-06T23:43:54.874Z,68.02
2018-04-06T23:46:24.279Z,67.52
2018-04-06T23:48:52.478Z,67.66
2018-04-06T23:51:20.657Z,68.05
2018-04-06T23:53:50.427Z,67.55
2018-04-06T23:56:18.635Z,67.46
2018-04-06T23:58:47.652Z,67.57
